createdAt,value
2022-10-11T00:02:01.781Z,10.90
2022-10-11T00:04:28.413Z,10.90
2022-10-11T00:06:56.300Z,10.90
2022-10-11T00:09:22.924Z,10.90
2022-10-11T00:11:49.721Z,10.80
2022-10-11T00:14:16.398Z,10.80
2022-10-11T00:16:44.440Z,10.80
2022-10-11T00:19:11.553Z,10.70
2022-10-11T00:21:38.309Z,10.80
2022-10-11T00:24:05.448Z,10.80
2022-10-11T00:26:32.069Z,10.70
2022-10-11T00:28:58.772Z,10.70
2022-10-11T00:31:25.444Z,10.70
2022-10-11T00:33:55.074Z,10.70
2022-10-11T00:36:24.863Z,10.60
2022-10-11T00:38:51.670Z,10.60
2022-10-11T00:41:18.639Z,10.60
2022-10-11T00:43:45.490Z,10.60
2022-10-11T00:46:18.241Z,10.60
2022-10-11T00:48:55.160Z,10.50
2022-10-11T00:51:46.408Z,10.50
2022-10-11T00:54:18.910Z,10.50
2022-10-11T00:56:49.861Z,10.50
2022-10-11T00:59:24.995Z,10.50
2022-10-11T01:01:52.138Z,10.50
2022-10-11T01:04:18.865Z,10.40
2022-10-11T01:06:46.512Z,10.40
2022-10-11T01:09:14.241Z,10.40
2022-10-11T01:11:43.597Z,10.40
2022-10-11T01:14:40.187Z,10.40
2022-10-11T01:17:19.776Z,10.40
2022-10-11T01:20:14.421Z,10.30
2022-10-11T01:23:18.427Z,10.30
2022-10-11T01:26:20.282Z,10.30
2022-10-11T01:29:19.924Z,10.30
2022-10-11T01:32:06.510Z,10.20
2022-10-11T01:34:40.557Z,10.20
2022-10-11T01:37:31.481Z,10.20
2022-10-11T01:40:10.326Z,10.20
2022-10-11T01:42:42.357Z,10.10
2022-10-11T01:45:13.689Z,10.10
2022-10-11T01:47:42.333Z,10.10
2022-10-11T01:50:36.802Z,10.00
2022-10-11T01:53:17.944Z,10.10
2022-10-11T01:55:53.009Z,10.10
2022-10-11T01:58:36.501Z,10.00
2022-10-11T02:01:33.073Z,10.00
2022-10-11T02:04:29.402Z,10.00
2022-10-11T02:07:03.963Z,10.00
2022-10-11T02:09:42.243Z,10.00
2022-10-11T02:12:12.267Z,10.00
2022-10-11T02:14:50.728Z,9.90
2022-10-11T02:17:23.988Z,9.90
2022-10-11T02:19:58.994Z,9.90
2022-10-11T02:22:30.293Z,9.90
2022-10-11T02:25:00.322Z,9.80
2022-10-11T02:27:33.011Z,9.80
2022-10-11T02:30:01.603Z,9.80
2022-10-11T02:32:30.154Z,9.80
2022-10-11T02:34:59.057Z,9.80
2022-10-11T02:37:47.437Z,9.70
2022-10-11T02:40:25.653Z,9.70
2022-10-11T02:43:25.223Z,9.70
2022-10-11T02:45:59.045Z,9.70
2022-10-11T02:48:30.417Z,9.60
2022-10-11T02:50:58.189Z,9.60
2022-10-11T02:53:28.549Z,9.60
2022-10-11T02:55:59.137Z,9.60
2022-10-11T02:58:28.157Z,9.60
2022-10-11T03:00:54.937Z,9.60
2022-10-11T03:03:21.556Z,9.50
2022-10-11T03:05:48.229Z,9.50
2022-10-11T03:08:16.889Z,9.50
2022-10-11T03:10:48.829Z,9.50
2022-10-11T03:13:18.616Z,9.50
2022-10-11T03:16:02.288Z,9.40
2022-10-11T03:18:35.408Z,9.40
2022-10-11T03:21:04.327Z,9.40
2022-10-11T03:23:30.940Z,9.40
2022-10-11T03:25:57.837Z,9.30
2022-10-11T03:28:24.680Z,9.30
2022-10-11T03:30:54.187Z,9.30
2022-10-11T03:33:20.956Z,9.30
2022-10-11T03:35:48.663Z,9.30
2022-10-11T03:38:21.118Z,9.20
2022-10-11T03:40:48.095Z,9.20
2022-10-11T03:43:14.938Z,9.20
2022-10-11T03:45:42.317Z,9.20
2022-10-11T03:48:09.893Z,9.10
2022-10-11T03:50:37.258Z,9.10
2022-10-11T03:53:05.398Z,9.10
2022-10-11T03:55:35.663Z,9.10
2022-10-11T03:58:02.269Z,9.10
2022-10-11T04:00:28.900Z,9.00
2022-10-11T04:02:59.042Z,9.10
2022-10-11T04:05:28.748Z,9.10
2022-10-11T04:07:56.544Z,9.10
2022-10-11T04:10:25.950Z,9.00
2022-10-11T04:12:52.591Z,9.00
2022-10-11T04:15:20.016Z,9.00
2022-10-11T04:17:46.739Z,9.00
2022-10-11T04:20:13.357Z,9.00
2022-10-11T04:22:40.319Z,9.00
2022-10-11T04:25:08.576Z,9.00
2022-10-11T04:27:35.502Z,8.90
2022-10-11T04:30:02.294Z,8.90
2022-10-11T04:32:28.925Z,8.90
2022-10-11T04:34:55.957Z,8.90
2022-10-11T04:37:24.765Z,8.90
2022-10-11T04:39:51.365Z,8.80
2022-10-11T04:42:18.015Z,8.80
2022-10-11T04:44:44.666Z,8.80
2022-10-11T04:47:11.631Z,8.80
2022-10-11T04:49:38.300Z,8.80
2022-10-11T04:52:04.957Z,8.80
2022-10-11T04:54:32.441Z,8.80
2022-10-11T04:56:59.053Z,8.70
2022-10-11T04:59:28.076Z,8.70
2022-10-11T05:01:54.753Z,8.70
2022-10-11T05:04:21.440Z,8.70
2022-10-11T05:06:48.125Z,8.70
2022-10-11T05:09:14.841Z,8.60
2022-10-11T05:11:41.473Z,8.60
2022-10-11T05:14:08.106Z,8.60
2022-10-11T05:16:35.630Z,8.60
2022-10-11T05:19:02.248Z,8.60
2022-10-11T05:21:30.177Z,8.50
2022-10-11T05:23:57.310Z,8.50
2022-10-11T05:26:25.918Z,8.50
2022-10-11T05:28:52.804Z,8.50
2022-10-11T05:31:19.969Z,8.50
2022-10-11T05:33:47.140Z,8.50
2022-10-11T05:36:14.085Z,8.40
2022-10-11T05:38:41.315Z,8.40
2022-10-11T05:41:09.229Z,8.40
2022-10-11T05:43:36.292Z,8.40
2022-10-11T05:46:03.297Z,8.30
2022-10-11T05:48:30.140Z,8.30
2022-10-11T05:51:04.338Z,8.30
2022-10-11T05:53:31.822Z,8.30
2022-10-11T05:55:58.651Z,8.30
2022-10-11T05:58:25.957Z,8.20
2022-10-11T06:00:52.651Z,8.20
2022-10-11T06:03:20.932Z,8.20
2022-10-11T06:05:47.582Z,8.20
2022-10-11T06:08:14.777Z,8.20
2022-10-11T06:10:41.812Z,8.20
2022-10-11T06:13:10.216Z,8.20
2022-10-11T06:15:38.765Z,8.20
2022-10-11T06:18:05.516Z,8.20
2022-10-11T06:20:32.299Z,8.20
2022-10-11T06:22:59.204Z,8.20
2022-10-11T06:25:25.901Z,8.20
2022-10-11T06:27:52.498Z,8.20
2022-10-11T06:30:21.464Z,8.20
2022-10-11T06:32:48.062Z,8.20
2022-10-11T06:35:15.969Z,8.20
2022-10-11T06:37:42.603Z,8.20
2022-10-11T06:40:09.586Z,8.20
2022-10-11T06:42:36.218Z,8.30
2022-10-11T06:45:03.241Z,8.30
2022-10-11T06:47:29.885Z,8.30
2022-10-11T06:49:56.696Z,8.40
2022-10-11T06:52:23.307Z,8.40
2022-10-11T06:54:49.885Z,8.40
2022-10-11T06:57:16.531Z,8.40
2022-10-11T06:59:43.137Z,8.50
2022-10-11T07:02:12.240Z,8.50
2022-10-11T07:04:39.250Z,8.60
2022-10-11T07:07:08.704Z,8.60
2022-10-11T07:09:35.407Z,8.60
2022-10-11T07:12:04.277Z,8.60
2022-10-11T07:14:31.446Z,8.70
2022-10-11T07:16:58.111Z,8.80
2022-10-11T07:19:24.769Z,8.80
2022-10-11T07:21:51.429Z,8.80
2022-10-11T07:24:18.122Z,8.90
2022-10-11T07:26:44.738Z,9.00
2022-10-11T07:29:11.883Z,9.00
2022-10-11T07:31:41.074Z,9.10
2022-10-11T07:34:07.900Z,9.20
2022-10-11T07:36:34.985Z,9.20
2022-10-11T07:39:04.790Z,9.30
2022-10-11T07:41:31.404Z,9.40
2022-10-11T07:43:58.081Z,9.50
2022-10-11T07:46:24.733Z,9.60
2022-10-11T07:48:51.574Z,9.70
2022-10-11T07:51:20.982Z,9.70
2022-10-11T07:53:50.068Z,9.80
2022-10-11T07:56:28.361Z,9.90
2022-10-11T07:59:00.550Z,10.00
2022-10-11T08:01:28.430Z,10.00
2022-10-11T08:03:58.119Z,10.10
2022-10-11T08:06:29.563Z,10.20
2022-10-11T08:08:59.299Z,10.30
2022-10-11T08:11:32.375Z,10.30
2022-10-11T08:14:00.366Z,10.40
2022-10-11T08:16:29.611Z,10.40
2022-10-11T08:18:57.163Z,10.50
2022-10-11T08:21:24.600Z,10.60
2022-10-11T08:23:51.170Z,10.60
2022-10-11T08:26:17.938Z,10.70
2022-10-11T08:28:44.746Z,10.70
2022-10-11T08:31:16.037Z,10.80
2022-10-11T08:33:43.048Z,10.90
2022-10-11T08:36:10.768Z,10.90
2022-10-11T08:38:38.289Z,11.00
2022-10-11T08:41:35.786Z,11.00
2022-10-11T08:44:20.182Z,11.10
2022-10-11T08:46:54.810Z,11.10
2022-10-11T08:49:32.301Z,11.20
2022-10-11T08:52:04.989Z,11.30
2022-10-11T08:55:04.479Z,11.30
2022-10-11T08:57:35.149Z,11.40
2022-10-11T09:00:06.675Z,11.50
2022-10-11T09:03:20.205Z,11.50
2022-10-11T09:06:30.659Z,11.60
2022-10-11T09:09:24.934Z,11.70
2022-10-11T09:11:57.641Z,11.80
2022-10-11T09:14:42.082Z,11.90
2022-10-11T09:17:23.709Z,11.90
2022-10-11T09:20:18.434Z,12.00
2022-10-11T09:23:11.609Z,12.00
2022-10-11T09:25:49.171Z,12.10
2022-10-11T09:28:43.739Z,12.20
2022-10-11T09:31:11.593Z,12.20
2022-10-11T09:33:51.680Z,12.30
2022-10-11T09:36:39.400Z,12.30
2022-10-11T09:39:24.844Z,12.40
2022-10-11T09:42:09.201Z,12.50
2022-10-11T09:44:39.540Z,12.60
2022-10-11T09:47:06.929Z,12.60
2022-10-11T09:49:40.613Z,12.70
2022-10-11T09:52:14.790Z,12.80
2022-10-11T09:54:43.968Z,12.80
2022-10-11T09:57:26.977Z,12.90
2022-10-11T10:00:07.905Z,13.00
2022-10-11T10:02:58.008Z,13.10
2022-10-11T10:05:24.579Z,13.20
2022-10-11T10:08:22.749Z,13.20
2022-10-11T10:11:00.860Z,13.30
2022-10-11T10:13:41.538Z,13.40
2022-10-11T10:16:32.074Z,13.50
2022-10-11T10:19:05.832Z,13.50
2022-10-11T10:21:43.501Z,13.60
2022-10-11T10:24:19.996Z,13.70
2022-10-11T10:27:25.217Z,13.70
2022-10-11T10:30:10.620Z,13.80
2022-10-11T10:32:52.539Z,13.90
2022-10-11T10:35:32.656Z,13.90
2022-10-11T10:38:11.548Z,14.00
2022-10-11T10:40:42.636Z,14.10
2022-10-11T10:43:17.952Z,14.10
2022-10-11T10:46:04.609Z,14.10
2022-10-11T10:49:23.619Z,14.20
2022-10-11T10:51:33.158Z,14.30
2022-10-11T10:54:24.787Z,14.30
2022-10-11T10:56:57.152Z,14.40
2022-10-11T10:59:36.052Z,14.50
2022-10-11T11:02:40.585Z,14.50
2022-10-11T11:05:39.926Z,14.60
2022-10-11T11:08:19.700Z,14.70
2022-10-11T11:11:28.362Z,14.80
2022-10-11T11:14:34.639Z,14.80
2022-10-11T11:17:21.458Z,14.90
2022-10-11T11:20:03.153Z,15.00
2022-10-11T11:22:45.920Z,15.10
2022-10-11T11:25:56.528Z,15.20
2022-10-11T11:28:47.171Z,15.30
2022-10-11T11:31:38.154Z,15.40
2022-10-11T11:34:13.632Z,15.50
2022-10-11T11:37:03.508Z,15.60
2022-10-11T11:39:35.357Z,15.60
2022-10-11T11:42:08.718Z,15.70
2022-10-11T11:44:39.755Z,15.80
2022-10-11T11:47:13.660Z,15.80
2022-10-11T11:50:01.439Z,15.80
2022-10-11T11:52:44.628Z,15.90
2022-10-11T11:55:36.332Z,15.90
2022-10-11T11:58:30.381Z,15.90
2022-10-11T12:01:14.969Z,15.90
2022-10-11T12:03:50.275Z,15.90
2022-10-11T12:06:22.860Z,15.90
2022-10-11T12:09:04.061Z,16.00
2022-10-11T12:11:54.301Z,16.00
2022-10-11T12:14:32.529Z,16.00
2022-10-11T12:17:12.448Z,16.10
2022-10-11T12:19:42.752Z,16.20
2022-10-11T12:22:35.124Z,16.20
2022-10-11T12:25:21.986Z,16.40
2022-10-11T12:27:53.760Z,16.50
2022-10-11T12:30:50.571Z,16.50
2022-10-11T12:33:23.048Z,16.60
2022-10-11T12:35:52.663Z,16.70
2022-10-11T12:38:40.183Z,16.80
2022-10-11T12:41:09.546Z,16.90
2022-10-11T12:43:48.179Z,17.00
2022-10-11T12:46:38.046Z,17.00
2022-10-11T12:49:33.673Z,17.10
2022-10-11T12:52:04.035Z,17.20
2022-10-11T12:54:49.593Z,17.20
2022-10-11T12:57:45.907Z,17.20
2022-10-11T13:00:30.279Z,17.20
2022-10-11T13:02:59.260Z,17.20
2022-10-11T13:05:41.954Z,17.20
2022-10-11T13:08:22.706Z,17.20
2022-10-11T13:10:49.395Z,17.20
2022-10-11T13:13:22.445Z,17.10
2022-10-11T13:15:51.386Z,17.00
2022-10-11T13:18:18.576Z,17.00
2022-10-11T13:20:48.185Z,17.10
2022-10-11T13:23:23.568Z,17.10
2022-10-11T13:25:50.995Z,17.10
2022-10-11T13:28:20.124Z,17.20
2022-10-11T13:30:52.034Z,17.30
2022-10-11T13:33:21.661Z,17.50
2022-10-11T13:35:50.746Z,17.80
2022-10-11T13:38:26.317Z,18.30
2022-10-11T13:40:53.089Z,19.20
2022-10-11T13:43:24.773Z,20.20
2022-10-11T13:45:55.642Z,21.40
2022-10-11T13:48:25.241Z,22.70
2022-10-11T13:51:26.389Z,24.10
2022-10-11T13:54:04.350Z,25.50
2022-10-11T13:56:47.721Z,27.00
2022-10-11T13:59:25.496Z,28.20
2022-10-11T14:02:01.256Z,29.30
2022-10-11T14:04:40.576Z,30.20
2022-10-11T14:07:24.833Z,31.10
2022-10-11T14:09:51.776Z,31.80
2022-10-11T14:12:40.838Z,32.40
2022-10-11T14:15:25.532Z,33.00
2022-10-11T14:17:52.214Z,33.40
2022-10-11T14:20:39.752Z,33.80
2022-10-11T14:23:06.770Z,34.10
2022-10-11T14:25:34.016Z,34.30
2022-10-11T14:28:01.069Z,34.40
2022-10-11T14:30:31.218Z,34.30
2022-10-11T14:33:00.453Z,33.90
2022-10-11T14:35:34.316Z,33.30
2022-10-11T14:38:00.982Z,32.60
2022-10-11T14:40:30.599Z,31.80
2022-10-11T14:42:57.370Z,30.90
2022-10-11T14:45:24.326Z,30.10
2022-10-11T14:47:51.737Z,29.40
2022-10-11T14:50:32.694Z,29.00
2022-10-11T14:52:59.825Z,28.80
2022-10-11T14:55:27.227Z,28.90
2022-10-11T14:57:53.886Z,29.10
2022-10-11T15:00:23.951Z,29.50
2022-10-11T15:02:52.648Z,29.90
2022-10-11T15:05:20.274Z,30.30
2022-10-11T15:07:47.560Z,30.80
2022-10-11T15:10:25.665Z,31.30
2022-10-11T15:12:53.797Z,31.80
2022-10-11T15:15:23.286Z,32.30
2022-10-11T15:17:56.044Z,32.70
2022-10-11T15:20:28.930Z,33.00
2022-10-11T15:22:56.942Z,33.30
2022-10-11T15:25:24.598Z,33.60
2022-10-11T15:27:52.406Z,33.80
2022-10-11T15:30:21.000Z,33.90
2022-10-11T15:32:48.382Z,34.00
2022-10-11T15:35:16.441Z,34.10
2022-10-11T15:37:43.574Z,34.10
2022-10-11T15:40:25.885Z,34.00
2022-10-11T15:42:54.680Z,34.00
2022-10-11T15:45:22.509Z,33.90
2022-10-11T15:47:50.277Z,33.80
2022-10-11T15:50:33.686Z,33.60
2022-10-11T15:53:21.108Z,33.40
2022-10-11T15:55:50.781Z,33.20
2022-10-11T15:58:26.378Z,32.80
2022-10-11T16:00:55.335Z,32.30
2022-10-11T16:03:25.159Z,31.60
2022-10-11T16:05:52.361Z,30.90
2022-10-11T16:08:19.236Z,30.10
2022-10-11T16:10:45.951Z,29.20
2022-10-11T16:13:12.732Z,28.40
2022-10-11T16:15:41.773Z,27.60
2022-10-11T16:18:14.684Z,26.80
2022-10-11T16:20:46.425Z,26.00
2022-10-11T16:23:13.935Z,25.30
2022-10-11T16:25:47.334Z,24.60
2022-10-11T16:28:20.188Z,24.00
2022-10-11T16:30:46.895Z,23.30
2022-10-11T16:33:13.570Z,22.80
2022-10-11T16:35:43.080Z,22.30
2022-10-11T16:38:10.373Z,21.80
2022-10-11T16:40:42.097Z,21.30
2022-10-11T16:43:10.368Z,20.90
2022-10-11T16:45:39.380Z,20.50
2022-10-11T16:48:06.203Z,20.10
2022-10-11T16:50:38.359Z,19.80
2022-10-11T16:53:08.034Z,19.40
2022-10-11T16:55:35.721Z,19.10
2022-10-11T16:58:02.395Z,18.80
2022-10-11T17:00:30.082Z,18.60
2022-10-11T17:02:56.811Z,18.20
2022-10-11T17:05:25.675Z,18.00
2022-10-11T17:07:52.392Z,17.70
2022-10-11T17:10:39.001Z,17.50
2022-10-11T17:13:06.612Z,17.30
2022-10-11T17:15:33.339Z,17.00
2022-10-11T17:17:59.910Z,16.80
2022-10-11T17:20:26.545Z,16.70
2022-10-11T17:22:55.597Z,16.50
2022-10-11T17:25:22.257Z,16.30
2022-10-11T17:27:51.115Z,16.20
2022-10-11T17:30:17.714Z,16.00
2022-10-11T17:32:44.321Z,15.80
2022-10-11T17:35:10.920Z,15.70
2022-10-11T17:37:37.525Z,15.60
2022-10-11T17:40:05.309Z,15.50
2022-10-11T17:42:32.036Z,15.30
2022-10-11T17:44:58.796Z,15.20
2022-10-11T17:47:25.477Z,15.10
2022-10-11T17:49:53.661Z,15.00
2022-10-11T17:52:20.290Z,14.90
2022-10-11T17:54:49.238Z,14.80
2022-10-11T17:57:15.941Z,14.70
2022-10-11T17:59:42.554Z,14.60
2022-10-11T18:02:10.049Z,14.50
2022-10-11T18:04:37.485Z,14.40
2022-10-11T18:07:04.122Z,14.30
2022-10-11T18:09:32.248Z,14.20
2022-10-11T18:11:58.858Z,14.10
2022-10-11T18:14:25.501Z,14.10
2022-10-11T18:16:52.256Z,14.00
2022-10-11T18:19:18.993Z,13.90
2022-10-11T18:21:45.601Z,13.80
2022-10-11T18:24:15.699Z,13.70
2022-10-11T18:26:46.312Z,13.70
2022-10-11T18:29:15.063Z,13.60
2022-10-11T18:31:41.999Z,13.60
2022-10-11T18:34:10.940Z,13.50
2022-10-11T18:36:39.991Z,13.40
2022-10-11T18:39:08.957Z,13.40
2022-10-11T18:41:35.683Z,13.30
2022-10-11T18:44:05.613Z,13.30
2022-10-11T18:46:32.795Z,13.20
2022-10-11T18:49:01.859Z,13.20
2022-10-11T18:51:36.920Z,13.10
2022-10-11T18:54:04.426Z,13.10
2022-10-11T18:56:34.687Z,13.10
2022-10-11T18:59:03.354Z,13.00
2022-10-11T19:01:36.177Z,12.90
2022-10-11T19:04:04.468Z,12.80
2022-10-11T19:06:37.684Z,12.80
2022-10-11T19:09:31.573Z,12.70
2022-10-11T19:12:01.010Z,12.70
2022-10-11T19:14:31.186Z,12.60
2022-10-11T19:16:59.321Z,12.60
2022-10-11T19:19:30.874Z,12.50
2022-10-11T19:21:59.267Z,12.40
2022-10-11T19:24:28.289Z,12.40
2022-10-11T19:27:01.242Z,12.40
2022-10-11T19:29:31.895Z,12.30
2022-10-11T19:32:01.404Z,12.30
2022-10-11T19:34:32.569Z,12.20
2022-10-11T19:37:01.080Z,12.20
2022-10-11T19:39:29.597Z,12.10
2022-10-11T19:41:57.052Z,12.10
2022-10-11T19:44:23.742Z,12.00
2022-10-11T19:47:02.753Z,12.00
2022-10-11T19:49:31.840Z,12.00
2022-10-11T19:51:59.526Z,11.90
2022-10-11T19:54:28.320Z,11.90
2022-10-11T19:56:56.492Z,11.80
2022-10-11T19:59:27.551Z,11.80
2022-10-11T20:01:55.801Z,11.80
2022-10-11T20:04:47.470Z,11.60
2022-10-11T20:07:10.334Z,11.70
2022-10-11T20:09:37.839Z,11.60
2022-10-11T20:12:04.837Z,11.60
2022-10-11T20:14:33.887Z,11.60
2022-10-11T20:17:01.519Z,11.50
2022-10-11T20:19:31.676Z,11.50
2022-10-11T20:21:59.979Z,11.40
2022-10-11T20:24:29.093Z,11.40
2022-10-11T20:26:55.908Z,11.40
2022-10-11T20:29:26.425Z,11.30
2022-10-11T20:31:53.467Z,11.30
2022-10-11T20:34:20.352Z,11.20
2022-10-11T20:36:55.304Z,11.20
2022-10-11T20:39:24.755Z,11.20
2022-10-11T20:41:55.217Z,11.20
2022-10-11T20:44:23.041Z,11.10
2022-10-11T20:46:49.748Z,11.10
2022-10-11T20:49:16.542Z,11.00
2022-10-11T20:51:43.677Z,11.00
2022-10-11T20:54:12.702Z,11.00
2022-10-11T20:56:42.604Z,10.90
2022-10-11T20:59:10.040Z,10.90
2022-10-11T21:01:39.595Z,10.90
2022-10-11T21:04:08.476Z,10.90
2022-10-11T21:06:37.566Z,10.80
2022-10-11T21:09:04.342Z,10.80
2022-10-11T21:11:33.473Z,10.80
2022-10-11T21:14:03.329Z,10.70
2022-10-11T21:16:30.439Z,10.70
2022-10-11T21:18:58.978Z,10.70
2022-10-11T21:21:26.777Z,10.60
2022-10-11T21:23:58.584Z,10.60
2022-10-11T21:26:25.916Z,10.60
2022-10-11T21:28:55.105Z,10.50
2022-10-11T21:31:24.114Z,10.50
2022-10-11T21:33:51.198Z,10.50
2022-10-11T21:36:20.125Z,10.50
2022-10-11T21:38:47.935Z,10.40
2022-10-11T21:41:17.273Z,10.40
2022-10-11T21:43:44.345Z,10.30
2022-10-11T21:46:54.178Z,10.30
2022-10-11T21:49:17.295Z,10.30
2022-10-11T21:51:44.006Z,10.30
2022-10-11T21:54:10.665Z,10.30
2022-10-11T21:56:37.271Z,10.20
2022-10-11T21:59:11.251Z,10.20
2022-10-11T22:01:40.233Z,10.20
2022-10-11T22:04:07.390Z,10.10
2022-10-11T22:06:35.383Z,10.10
2022-10-11T22:09:03.613Z,10.10
2022-10-11T22:11:30.746Z,10.00
2022-10-11T22:13:57.819Z,10.00
2022-10-11T22:16:24.454Z,10.00
2022-10-11T22:18:53.582Z,9.90
2022-10-11T22:21:22.313Z,9.90
2022-10-11T22:23:51.887Z,9.90
2022-10-11T22:26:27.268Z,9.90
2022-10-11T22:28:53.957Z,9.80
2022-10-11T22:31:22.280Z,9.80
2022-10-11T22:33:53.228Z,9.80
2022-10-11T22:36:19.949Z,9.80
2022-10-11T22:38:48.429Z,9.80
2022-10-11T22:41:15.087Z,9.70
2022-10-11T22:43:41.720Z,9.70
2022-10-11T22:46:08.688Z,9.70
2022-10-11T22:48:37.955Z,9.60
2022-10-11T22:51:04.672Z,9.70
2022-10-11T22:53:31.664Z,9.60
2022-10-11T22:55:58.540Z,9.60
2022-10-11T22:58:25.485Z,9.60
2022-10-11T23:00:53.095Z,9.50
2022-10-11T23:03:20.028Z,9.50
2022-10-11T23:05:56.508Z,9.50
2022-10-11T23:08:25.577Z,9.40
2022-10-11T23:10:52.293Z,9.40
2022-10-11T23:13:21.983Z,9.40
2022-10-11T23:15:48.616Z,9.40
2022-10-11T23:18:16.334Z,9.40
2022-10-11T23:20:42.912Z,9.30
2022-10-11T23:23:09.568Z,9.30
2022-10-11T23:25:36.178Z,9.20
2022-10-11T23:28:02.821Z,9.30
2022-10-11T23:30:29.996Z,9.20
2022-10-11T23:32:57.155Z,9.20
2022-10-11T23:35:24.093Z,9.20
2022-10-11T23:37:52.965Z,9.10
2022-10-11T23:40:19.692Z,9.10
2022-10-11T23:42:49.252Z,9.10
2022-10-11T23:45:18.431Z,9.10
2022-10-11T23:47:45.028Z,9.10
2022-10-11T23:50:11.668Z,9.00
2022-10-11T23:52:38.324Z,9.10
2022-10-11T23:55:05.287Z,9.00
2022-10-11T23:57:31.942Z,9.00
2022-10-11T23:59:58.660Z,9.00
